sensor_id;sensor_type;location;lat;lon;timestamp;P1;durP1;ratioP1;P2;durP2;ratioP2
18999;SDS011;9633;50.980;13.850;2023-10-13T00:00:47;13.57;;;7.77;;
18999;SDS011;9633;50.980;13.850;2023-10-13T00:02:22;12.30;;;7.60;;
18999;SDS011;9633;50.980;13.850;2023-10-13T00:03:55;11.97;;;7.70;;
18999;SDS011;9633;50.980;13.850;2023-10-13T00:05:29;13.23;;;8.23;;
18999;SDS011;9633;50.980;13.850;2023-10-13T00:07:02;12.23;;;8.03;;
18999;SDS011;9633;50.980;13.850;2023-10-13T00:08:40;12.13;;;8.17;;
18999;SDS011;9633;50.980;13.850;2023-10-13T00:10:13;15.27;;;8.23;;
18999;SDS011;9633;50.980;13.850;2023-10-13T00:11:50;11.30;;;8.37;;
18999;SDS011;9633;50.980;13.850;2023-10-13T00:13:25;10.50;;;8.57;;
18999;SDS011;9633;50.980;13.850;2023-10-13T00:14:58;11.63;;;8.40;;
18999;SDS011;9633;50.980;13.850;2023-10-13T00:16:35;12.03;;;7.97;;
18999;SDS011;9633;50.980;13.850;2023-10-13T00:18:12;12.07;;;8.07;;
18999;SDS011;9633;50.980;13.850;2023-10-13T00:19:45;12.37;;;8.33;;
18999;SDS011;9633;50.980;13.850;2023-10-13T00:21:23;11.27;;;8.40;;
18999;SDS011;9633;50.980;13.850;2023-10-13T00:23:03;10.57;;;7.53;;
18999;SDS011;9633;50.980;13.850;2023-10-13T00:24:37;10.50;;;8.07;;
18999;SDS011;9633;50.980;13.850;2023-10-13T00:26:16;11.73;;;8.30;;
18999;SDS011;9633;50.980;13.850;2023-10-13T00:27:54;11.67;;;7.80;;
18999;SDS011;9633;50.980;13.850;2023-10-13T00:29:27;11.47;;;8.50;;
18999;SDS011;9633;50.980;13.850;2023-10-13T00:31:08;11.60;;;7.67;;
18999;SDS011;9633;50.980;13.850;2023-10-13T00:32:43;11.50;;;8.27;;
18999;SDS011;9633;50.980;13.850;2023-10-13T00:34:20;11.37;;;8.50;;
18999;SDS011;9633;50.980;13.850;2023-10-13T00:35:57;9.63;;;7.33;;
18999;SDS011;9633;50.980;13.850;2023-10-13T00:37:32;14.07;;;8.73;;
18999;SDS011;9633;50.980;13.850;2023-10-13T00:39:16;10.10;;;7.97;;
18999;SDS011;9633;50.980;13.850;2023-10-13T00:40:50;13.40;;;8.20;;
18999;SDS011;9633;50.980;13.850;2023-10-13T00:42:23;11.00;;;7.97;;
18999;SDS011;9633;50.980;13.850;2023-10-13T00:44:18;12.87;;;8.30;;
18999;SDS011;9633;50.980;13.850;2023-10-13T00:45:59;11.97;;;8.40;;
18999;SDS011;9633;50.980;13.850;2023-10-13T00:47:39;12.63;;;7.80;;
18999;SDS011;9633;50.980;13.850;2023-10-13T00:49:22;11.10;;;7.93;;
18999;SDS011;9633;50.980;13.850;2023-10-13T00:50:56;11.57;;;7.80;;
18999;SDS011;9633;50.980;13.850;2023-10-13T00:52:30;10.90;;;7.17;;
18999;SDS011;9633;50.980;13.850;2023-10-13T00:54:07;13.27;;;7.93;;
18999;SDS011;9633;50.980;13.850;2023-10-13T00:55:42;10.53;;;7.90;;
18999;SDS011;9633;50.980;13.850;2023-10-13T00:57:15;10.57;;;7.50;;
18999;SDS011;9633;50.980;13.850;2023-10-13T00:58:58;11.97;;;8.67;;
18999;SDS011;9633;50.980;13.850;2023-10-13T01:00:34;11.87;;;8.20;;
18999;SDS011;9633;50.980;13.850;2023-10-13T01:02:18;10.90;;;8.20;;
18999;SDS011;9633;50.980;13.850;2023-10-13T01:04:09;10.90;;;7.73;;
18999;SDS011;9633;50.980;13.850;2023-10-13T01:05:46;10.47;;;8.33;;
18999;SDS011;9633;50.980;13.850;2023-10-13T01:07:22;9.77;;;7.47;;
18999;SDS011;9633;50.980;13.850;2023-10-13T01:08:57;12.33;;;8.13;;
18999;SDS011;9633;50.980;13.850;2023-10-13T01:10:31;10.27;;;7.77;;
18999;SDS011;9633;50.980;13.850;2023-10-13T01:12:04;12.40;;;8.23;;
18999;SDS011;9633;50.980;13.850;2023-10-13T01:13:40;10.80;;;8.50;;
18999;SDS011;9633;50.980;13.850;2023-10-13T01:15:13;13.70;;;9.07;;
18999;SDS011;9633;50.980;13.850;2023-10-13T01:16:52;14.33;;;8.57;;
18999;SDS011;9633;50.980;13.850;2023-10-13T01:18:27;11.87;;;8.27;;
18999;SDS011;9633;50.980;13.850;2023-10-13T01:19:59;12.50;;;8.37;;
18999;SDS011;9633;50.980;13.850;2023-10-13T01:21:34;14.07;;;8.30;;
18999;SDS011;9633;50.980;13.850;2023-10-13T01:23:09;10.43;;;8.20;;
18999;SDS011;9633;50.980;13.850;2023-10-13T01:24:49;14.30;;;8.83;;
18999;SDS011;9633;50.980;13.850;2023-10-13T01:26:35;12.00;;;8.60;;
18999;SDS011;9633;50.980;13.850;2023-10-13T01:28:10;13.03;;;9.10;;
18999;SDS011;9633;50.980;13.850;2023-10-13T01:29:47;11.57;;;8.43;;
18999;SDS011;9633;50.980;13.850;2023-10-13T01:31:22;13.17;;;8.57;;
18999;SDS011;9633;50.980;13.850;2023-10-13T01:33:02;11.07;;;9.50;;
18999;SDS011;9633;50.980;13.850;2023-10-13T01:34:34;12.67;;;8.43;;
18999;SDS011;9633;50.980;13.850;2023-10-13T01:36:09;9.90;;;7.70;;
18999;SDS011;9633;50.980;13.850;2023-10-13T01:37:43;11.30;;;8.43;;
18999;SDS011;9633;50.980;13.850;2023-10-13T01:39:18;10.87;;;8.20;;
18999;SDS011;9633;50.980;13.850;2023-10-13T01:40:53;12.10;;;8.27;;
18999;SDS011;9633;50.980;13.850;2023-10-13T01:42:29;10.60;;;8.50;;
18999;SDS011;9633;50.980;13.850;2023-10-13T01:44:01;12.50;;;8.40;;
18999;SDS011;9633;50.980;13.850;2023-10-13T01:45:35;11.63;;;8.30;;
18999;SDS011;9633;50.980;13.850;2023-10-13T01:47:11;11.53;;;7.90;;
18999;SDS011;9633;50.980;13.850;2023-10-13T01:48:45;11.33;;;8.07;;
18999;SDS011;9633;50.980;13.850;2023-10-13T01:50:18;12.90;;;8.13;;
18999;SDS011;9633;50.980;13.850;2023-10-13T01:51:52;12.23;;;8.90;;
18999;SDS011;9633;50.980;13.850;2023-10-13T01:53:25;11.03;;;8.87;;
18999;SDS011;9633;50.980;13.850;2023-10-13T01:55:01;14.53;;;8.87;;
18999;SDS011;9633;50.980;13.850;2023-10-13T01:56:38;12.00;;;7.90;;
18999;SDS011;9633;50.980;13.850;2023-10-13T01:58:14;13.37;;;8.97;;
18999;SDS011;9633;50.980;13.850;2023-10-13T01:59:49;14.40;;;9.30;;
18999;SDS011;9633;50.980;13.850;2023-10-13T02:01:22;10.37;;;8.43;;
18999;SDS011;9633;50.980;13.850;2023-10-13T02:02:58;13.23;;;8.27;;
18999;SDS011;9633;50.980;13.850;2023-10-13T02:04:32;13.93;;;8.47;;
18999;SDS011;9633;50.980;13.850;2023-10-13T02:06:05;11.30;;;8.27;;
18999;SDS011;9633;50.980;13.850;2023-10-13T02:07:41;10.67;;;7.80;;
18999;SDS011;9633;50.980;13.850;2023-10-13T02:09:16;12.13;;;8.03;;
18999;SDS011;9633;50.980;13.850;2023-10-13T02:10:58;11.10;;;7.90;;
18999;SDS011;9633;50.980;13.850;2023-10-13T02:12:32;13.77;;;8.40;;
18999;SDS011;9633;50.980;13.850;2023-10-13T02:14:08;9.57;;;7.87;;
18999;SDS011;9633;50.980;13.850;2023-10-13T02:15:43;11.10;;;8.73;;
18999;SDS011;9633;50.980;13.850;2023-10-13T02:17:16;12.37;;;8.67;;
18999;SDS011;9633;50.980;13.850;2023-10-13T02:18:52;10.53;;;8.07;;
18999;SDS011;9633;50.980;13.850;2023-10-13T02:20:26;9.73;;;8.23;;
18999;SDS011;9633;50.980;13.850;2023-10-13T02:22:02;14.30;;;8.37;;
18999;SDS011;9633;50.980;13.850;2023-10-13T02:23:36;10.13;;;7.77;;
18999;SDS011;9633;50.980;13.850;2023-10-13T02:25:15;13.17;;;9.43;;
18999;SDS011;9633;50.980;13.850;2023-10-13T02:27:09;10.30;;;8.10;;
18999;SDS011;9633;50.980;13.850;2023-10-13T02:28:45;10.37;;;8.30;;
18999;SDS011;9633;50.980;13.850;2023-10-13T02:30:22;12.53;;;9.00;;
18999;SDS011;9633;50.980;13.850;2023-10-13T02:31:56;11.77;;;7.90;;
18999;SDS011;9633;50.980;13.850;2023-10-13T02:33:29;11.43;;;8.07;;
18999;SDS011;9633;50.980;13.850;2023-10-13T02:35:03;12.17;;;7.90;;
18999;SDS011;9633;50.980;13.850;2023-10-13T02:36:37;12.33;;;8.53;;
18999;SDS011;9633;50.980;13.850;2023-10-13T02:38:19;11.97;;;8.70;;
18999;SDS011;9633;50.980;13.850;2023-10-13T02:40:06;11.70;;;8.67;;
18999;SDS011;9633;50.980;13.850;2023-10-13T02:41:40;15.00;;;9.60;;
18999;SDS011;9633;50.980;13.850;2023-10-13T02:43:18;12.73;;;9.43;;
18999;SDS011;9633;50.980;13.850;2023-10-13T02:44:54;10.93;;;9.20;;
18999;SDS011;9633;50.980;13.850;2023-10-13T02:46:28;12.10;;;9.00;;
18999;SDS011;9633;50.980;13.850;2023-10-13T02:48:02;12.53;;;9.07;;
18999;SDS011;9633;50.980;13.850;2023-10-13T02:49:43;11.17;;;8.87;;
18999;SDS011;9633;50.980;13.850;2023-10-13T02:51:19;18.33;;;9.30;;
18999;SDS011;9633;50.980;13.850;2023-10-13T02:52:57;11.13;;;8.27;;
18999;SDS011;9633;50.980;13.850;2023-10-13T02:54:29;13.47;;;9.03;;
18999;SDS011;9633;50.980;13.850;2023-10-13T02:56:07;12.00;;;8.67;;
18999;SDS011;9633;50.980;13.850;2023-10-13T02:57:40;12.67;;;9.13;;
18999;SDS011;9633;50.980;13.850;2023-10-13T02:59:14;15.87;;;8.97;;
18999;SDS011;9633;50.980;13.850;2023-10-13T03:00:51;12.07;;;8.67;;
18999;SDS011;9633;50.980;13.850;2023-10-13T03:02:25;10.80;;;8.43;;
18999;SDS011;9633;50.980;13.850;2023-10-13T03:04:00;14.27;;;9.07;;
18999;SDS011;9633;50.980;13.850;2023-10-13T03:05:34;12.77;;;8.53;;
18999;SDS011;9633;50.980;13.850;2023-10-13T03:07:10;12.70;;;8.47;;
18999;SDS011;9633;50.980;13.850;2023-10-13T03:08:47;12.20;;;8.23;;
18999;SDS011;9633;50.980;13.850;2023-10-13T03:10:20;10.43;;;8.57;;
18999;SDS011;9633;50.980;13.850;2023-10-13T03:12:00;10.13;;;8.20;;
18999;SDS011;9633;50.980;13.850;2023-10-13T03:13:34;13.07;;;8.70;;
18999;SDS011;9633;50.980;13.850;2023-10-13T03:15:09;10.70;;;7.93;;
18999;SDS011;9633;50.980;13.850;2023-10-13T03:16:46;11.83;;;8.90;;
18999;SDS011;9633;50.980;13.850;2023-10-13T03:18:19;12.13;;;8.27;;
18999;SDS011;9633;50.980;13.850;2023-10-13T03:19:52;14.40;;;8.93;;
18999;SDS011;9633;50.980;13.850;2023-10-13T03:21:26;12.43;;;8.87;;
18999;SDS011;9633;50.980;13.850;2023-10-13T03:23:02;12.13;;;8.57;;
18999;SDS011;9633;50.980;13.850;2023-10-13T03:24:41;11.73;;;8.27;;
18999;SDS011;9633;50.980;13.850;2023-10-13T03:26:17;9.53;;;7.80;;
18999;SDS011;9633;50.980;13.850;2023-10-13T03:27:53;11.70;;;8.30;;
18999;SDS011;9633;50.980;13.850;2023-10-13T03:29:36;11.80;;;8.23;;
18999;SDS011;9633;50.980;13.850;2023-10-13T03:31:15;10.63;;;8.30;;
18999;SDS011;9633;50.980;13.850;2023-10-13T03:32:50;11.03;;;8.23;;
18999;SDS011;9633;50.980;13.850;2023-10-13T03:34:26;12.53;;;9.07;;
18999;SDS011;9633;50.980;13.850;2023-10-13T03:36:01;12.67;;;8.80;;
18999;SDS011;9633;50.980;13.850;2023-10-13T03:37:38;12.93;;;9.00;;
18999;SDS011;9633;50.980;13.850;2023-10-13T03:39:10;13.57;;;9.63;;
18999;SDS011;9633;50.980;13.850;2023-10-13T03:40:46;13.93;;;9.10;;
18999;SDS011;9633;50.980;13.850;2023-10-13T03:42:28;12.40;;;8.10;;
18999;SDS011;9633;50.980;13.850;2023-10-13T03:44:00;12.53;;;8.90;;
18999;SDS011;9633;50.980;13.850;2023-10-13T03:45:44;14.00;;;9.70;;
18999;SDS011;9633;50.980;13.850;2023-10-13T03:47:21;13.10;;;8.63;;
18999;SDS011;9633;50.980;13.850;2023-10-13T03:48:58;11.87;;;8.70;;
18999;SDS011;9633;50.980;13.850;2023-10-13T03:50:33;12.57;;;9.20;;
18999;SDS011;9633;50.980;13.850;2023-10-13T03:52:07;12.30;;;8.43;;
18999;SDS011;9633;50.980;13.850;2023-10-13T03:53:44;11.57;;;9.03;;
18999;SDS011;9633;50.980;13.850;2023-10-13T03:55:25;12.97;;;9.27;;
18999;SDS011;9633;50.980;13.850;2023-10-13T03:56:59;13.43;;;8.37;;
18999;SDS011;9633;50.980;13.850;2023-10-13T03:58:35;10.83;;;8.17;;
18999;SDS011;9633;50.980;13.850;2023-10-13T04:00:10;10.83;;;8.43;;
18999;SDS011;9633;50.980;13.850;2023-10-13T04:01:52;12.33;;;8.40;;
18999;SDS011;9633;50.980;13.850;2023-10-13T04:03:32;11.07;;;7.93;;
18999;SDS011;9633;50.980;13.850;2023-10-13T04:05:06;11.67;;;8.33;;
18999;SDS011;9633;50.980;13.850;2023-10-13T04:06:41;11.27;;;7.57;;
18999;SDS011;9633;50.980;13.850;2023-10-13T04:08:23;11.90;;;8.73;;
18999;SDS011;9633;50.980;13.850;2023-10-13T04:10:20;11.10;;;8.47;;
18999;SDS011;9633;50.980;13.850;2023-10-13T04:12:11;14.93;;;8.83;;
18999;SDS011;9633;50.980;13.850;2023-10-13T04:13:58;11.63;;;8.57;;
18999;SDS011;9633;50.980;13.850;2023-10-13T04:15:49;13.67;;;8.63;;
18999;SDS011;9633;50.980;13.850;2023-10-13T04:17:46;10.90;;;8.37;;
18999;SDS011;9633;50.980;13.850;2023-10-13T04:19:22;12.43;;;8.50;;
18999;SDS011;9633;50.980;13.850;2023-10-13T04:20:56;10.30;;;8.40;;
18999;SDS011;9633;50.980;13.850;2023-10-13T04:22:49;12.67;;;8.43;;
18999;SDS011;9633;50.980;13.850;2023-10-13T04:24:48;11.80;;;8.33;;
18999;SDS011;9633;50.980;13.850;2023-10-13T04:26:53;11.23;;;8.73;;
18999;SDS011;9633;50.980;13.850;2023-10-13T04:28:40;9.10;;;7.83;;
18999;SDS011;9633;50.980;13.850;2023-10-13T04:30:23;13.80;;;9.57;;
18999;SDS011;9633;50.980;13.850;2023-10-13T04:31:59;11.30;;;8.60;;
18999;SDS011;9633;50.980;13.850;2023-10-13T04:33:34;9.77;;;8.50;;
18999;SDS011;9633;50.980;13.850;2023-10-13T04:35:21;12.40;;;8.43;;
18999;SDS011;9633;50.980;13.850;2023-10-13T04:36:57;10.40;;;8.47;;
18999;SDS011;9633;50.980;13.850;2023-10-13T04:38:49;10.37;;;8.50;;
18999;SDS011;9633;50.980;13.850;2023-10-13T04:40:31;10.53;;;7.93;;
18999;SDS011;9633;50.980;13.850;2023-10-13T04:42:07;12.00;;;8.07;;
18999;SDS011;9633;50.980;13.850;2023-10-13T04:43:45;12.03;;;8.07;;
18999;SDS011;9633;50.980;13.850;2023-10-13T04:45:27;11.77;;;8.13;;
18999;SDS011;9633;50.980;13.850;2023-10-13T04:47:25;11.13;;;7.97;;
18999;SDS011;9633;50.980;13.850;2023-10-13T04:49:01;13.63;;;8.53;;
18999;SDS011;9633;50.980;13.850;2023-10-13T04:50:43;12.60;;;8.53;;
18999;SDS011;9633;50.980;13.850;2023-10-13T04:52:16;9.97;;;8.27;;
18999;SDS011;9633;50.980;13.850;2023-10-13T04:54:10;11.90;;;8.80;;
18999;SDS011;9633;50.980;13.850;2023-10-13T04:55:56;14.13;;;8.83;;
18999;SDS011;9633;50.980;13.850;2023-10-13T04:57:39;12.27;;;8.10;;
18999;SDS011;9633;50.980;13.850;2023-10-13T04:59:21;10.77;;;7.73;;
18999;SDS011;9633;50.980;13.850;2023-10-13T05:01:29;10.67;;;8.63;;
18999;SDS011;9633;50.980;13.850;2023-10-13T05:03:41;12.30;;;9.53;;
18999;SDS011;9633;50.980;13.850;2023-10-13T05:05:54;13.73;;;9.10;;
18999;SDS011;9633;50.980;13.850;2023-10-13T05:08:02;13.93;;;9.70;;
18999;SDS011;9633;50.980;13.850;2023-10-13T05:09:53;11.30;;;9.03;;
18999;SDS011;9633;50.980;13.850;2023-10-13T05:11:44;14.57;;;9.40;;
18999;SDS011;9633;50.980;13.850;2023-10-13T05:13:36;13.63;;;9.17;;
18999;SDS011;9633;50.980;13.850;2023-10-13T05:15:27;10.43;;;9.07;;
18999;SDS011;9633;50.980;13.850;2023-10-13T05:17:18;14.60;;;8.90;;
18999;SDS011;9633;50.980;13.850;2023-10-13T05:19:09;13.33;;;9.60;;
18999;SDS011;9633;50.980;13.850;2023-10-13T05:21:02;12.70;;;9.23;;
18999;SDS011;9633;50.980;13.850;2023-10-13T05:22:53;12.60;;;9.63;;
18999;SDS011;9633;50.980;13.850;2023-10-13T05:24:44;15.20;;;8.57;;
18999;SDS011;9633;50.980;13.850;2023-10-13T05:26:35;11.73;;;8.80;;
18999;SDS011;9633;50.980;13.850;2023-10-13T05:28:26;14.67;;;8.77;;
18999;SDS011;9633;50.980;13.850;2023-10-13T05:30:17;12.57;;;8.40;;
18999;SDS011;9633;50.980;13.850;2023-10-13T05:32:08;11.57;;;8.00;;
18999;SDS011;9633;50.980;13.850;2023-10-13T05:34:00;13.87;;;8.53;;
18999;SDS011;9633;50.980;13.850;2023-10-13T05:35:51;11.40;;;7.70;;
18999;SDS011;9633;50.980;13.850;2023-10-13T05:37:44;12.67;;;8.30;;
18999;SDS011;9633;50.980;13.850;2023-10-13T05:39:35;12.10;;;7.97;;
18999;SDS011;9633;50.980;13.850;2023-10-13T05:41:25;12.27;;;8.17;;
18999;SDS011;9633;50.980;13.850;2023-10-13T05:43:16;12.30;;;7.23;;
18999;SDS011;9633;50.980;13.850;2023-10-13T05:45:08;10.57;;;7.40;;
18999;SDS011;9633;50.980;13.850;2023-10-13T05:47:11;10.50;;;7.63;;
18999;SDS011;9633;50.980;13.850;2023-10-13T05:49:03;8.93;;;7.10;;
18999;SDS011;9633;50.980;13.850;2023-10-13T05:51:01;11.83;;;7.03;;
18999;SDS011;9633;50.980;13.850;2023-10-13T05:52:53;11.77;;;6.83;;
18999;SDS011;9633;50.980;13.850;2023-10-13T05:54:44;8.60;;;7.00;;
18999;SDS011;9633;50.980;13.850;2023-10-13T05:56:36;8.47;;;7.10;;
18999;SDS011;9633;50.980;13.850;2023-10-13T05:58:27;10.00;;;6.87;;
18999;SDS011;9633;50.980;13.850;2023-10-13T06:00:18;10.27;;;6.93;;
18999;SDS011;9633;50.980;13.850;2023-10-13T06:02:10;9.50;;;6.67;;
18999;SDS011;9633;50.980;13.850;2023-10-13T06:04:01;9.00;;;6.90;;
18999;SDS011;9633;50.980;13.850;2023-10-13T06:05:52;9.50;;;6.70;;
18999;SDS011;9633;50.980;13.850;2023-10-13T06:07:44;7.93;;;6.53;;
18999;SDS011;9633;50.980;13.850;2023-10-13T06:09:36;12.73;;;6.70;;
18999;SDS011;9633;50.980;13.850;2023-10-13T06:11:29;10.83;;;6.93;;
18999;SDS011;9633;50.980;13.850;2023-10-13T06:13:20;9.30;;;6.13;;
18999;SDS011;9633;50.980;13.850;2023-10-13T06:15:12;12.07;;;6.77;;
18999;SDS011;9633;50.980;13.850;2023-10-13T06:17:03;9.07;;;6.50;;
18999;SDS011;9633;50.980;13.850;2023-10-13T06:18:54;10.20;;;6.43;;
18999;SDS011;9633;50.980;13.850;2023-10-13T06:20:45;7.80;;;6.60;;
18999;SDS011;9633;50.980;13.850;2023-10-13T06:22:36;8.87;;;6.10;;
18999;SDS011;9633;50.980;13.850;2023-10-13T06:24:27;7.67;;;6.43;;
18999;SDS011;9633;50.980;13.850;2023-10-13T06:26:20;11.17;;;7.33;;
18999;SDS011;9633;50.980;13.850;2023-10-13T06:28:11;8.83;;;6.67;;
18999;SDS011;9633;50.980;13.850;2023-10-13T06:30:02;10.37;;;7.87;;
18999;SDS011;9633;50.980;13.850;2023-10-13T06:31:37;10.70;;;7.93;;
18999;SDS011;9633;50.980;13.850;2023-10-13T06:33:17;10.93;;;7.80;;
18999;SDS011;9633;50.980;13.850;2023-10-13T06:34:50;8.90;;;7.63;;
18999;SDS011;9633;50.980;13.850;2023-10-13T06:36:29;9.90;;;8.00;;
18999;SDS011;9633;50.980;13.850;2023-10-13T06:38:04;10.63;;;8.67;;
18999;SDS011;9633;50.980;13.850;2023-10-13T06:39:41;9.93;;;8.37;;
18999;SDS011;9633;50.980;13.850;2023-10-13T06:41:17;9.50;;;8.10;;
18999;SDS011;9633;50.980;13.850;2023-10-13T06:43:03;12.00;;;8.40;;
18999;SDS011;9633;50.980;13.850;2023-10-13T06:44:49;13.33;;;8.93;;
18999;SDS011;9633;50.980;13.850;2023-10-13T06:46:25;12.33;;;9.00;;
18999;SDS011;9633;50.980;13.850;2023-10-13T06:47:59;12.53;;;9.47;;
18999;SDS011;9633;50.980;13.850;2023-10-13T06:49:33;10.73;;;9.47;;
18999;SDS011;9633;50.980;13.850;2023-10-13T06:51:11;11.53;;;9.80;;
18999;SDS011;9633;50.980;13.850;2023-10-13T06:52:52;12.23;;;10.47;;
18999;SDS011;9633;50.980;13.850;2023-10-13T06:54:27;13.30;;;10.47;;
18999;SDS011;9633;50.980;13.850;2023-10-13T06:56:00;13.20;;;10.60;;
18999;SDS011;9633;50.980;13.850;2023-10-13T06:57:34;13.40;;;10.77;;
18999;SDS011;9633;50.980;13.850;2023-10-13T06:59:09;12.87;;;10.67;;
18999;SDS011;9633;50.980;13.850;2023-10-13T07:00:45;13.53;;;11.37;;
18999;SDS011;9633;50.980;13.850;2023-10-13T07:02:24;12.40;;;10.83;;
18999;SDS011;9633;50.980;13.850;2023-10-13T07:04:06;13.93;;;11.43;;
18999;SDS011;9633;50.980;13.850;2023-10-13T07:05:45;15.40;;;11.43;;
18999;SDS011;9633;50.980;13.850;2023-10-13T07:07:19;12.73;;;11.13;;
18999;SDS011;9633;50.980;13.850;2023-10-13T07:08:53;12.83;;;11.47;;
18999;SDS011;9633;50.980;13.850;2023-10-13T07:10:28;13.60;;;11.07;;
18999;SDS011;9633;50.980;13.850;2023-10-13T07:12:02;16.57;;;11.40;;
18999;SDS011;9633;50.980;13.850;2023-10-13T07:13:38;15.20;;;11.57;;
18999;SDS011;9633;50.980;13.850;2023-10-13T07:15:12;15.10;;;12.10;;
18999;SDS011;9633;50.980;13.850;2023-10-13T07:16:55;16.03;;;13.60;;
18999;SDS011;9633;50.980;13.850;2023-10-13T07:18:30;15.00;;;12.60;;
18999;SDS011;9633;50.980;13.850;2023-10-13T07:20:08;14.37;;;12.73;;
18999;SDS011;9633;50.980;13.850;2023-10-13T07:21:55;16.33;;;13.60;;
18999;SDS011;9633;50.980;13.850;2023-10-13T07:23:30;18.07;;;14.17;;
18999;SDS011;9633;50.980;13.850;2023-10-13T07:25:03;15.97;;;14.07;;
18999;SDS011;9633;50.980;13.850;2023-10-13T07:26:38;15.27;;;13.77;;
18999;SDS011;9633;50.980;13.850;2023-10-13T07:28:17;18.17;;;13.77;;
18999;SDS011;9633;50.980;13.850;2023-10-13T07:29:50;17.63;;;14.10;;
18999;SDS011;9633;50.980;13.850;2023-10-13T07:31:30;15.17;;;13.57;;
18999;SDS011;9633;50.980;13.850;2023-10-13T07:33:03;15.57;;;13.67;;
18999;SDS011;9633;50.980;13.850;2023-10-13T07:34:37;15.13;;;13.47;;
18999;SDS011;9633;50.980;13.850;2023-10-13T07:36:11;15.03;;;12.77;;
18999;SDS011;9633;50.980;13.850;2023-10-13T07:37:49;14.77;;;13.07;;
18999;SDS011;9633;50.980;13.850;2023-10-13T07:39:24;14.43;;;12.27;;
18999;SDS011;9633;50.980;13.850;2023-10-13T07:40:59;13.40;;;12.00;;
18999;SDS011;9633;50.980;13.850;2023-10-13T07:42:39;13.43;;;11.43;;
18999;SDS011;9633;50.980;13.850;2023-10-13T07:44:14;13.40;;;12.10;;
18999;SDS011;9633;50.980;13.850;2023-10-13T07:45:47;13.50;;;12.20;;
18999;SDS011;9633;50.980;13.850;2023-10-13T07:47:26;13.93;;;11.90;;
18999;SDS011;9633;50.980;13.850;2023-10-13T07:49:00;14.13;;;11.40;;
18999;SDS011;9633;50.980;13.850;2023-10-13T07:50:41;13.00;;;11.37;;
18999;SDS011;9633;50.980;13.850;2023-10-13T07:52:15;12.33;;;11.03;;
18999;SDS011;9633;50.980;13.850;2023-10-13T07:54:01;11.83;;;10.37;;
18999;SDS011;9633;50.980;13.850;2023-10-13T07:55:39;13.63;;;10.80;;
18999;SDS011;9633;50.980;13.850;2023-10-13T07:57:12;11.87;;;10.40;;
18999;SDS011;9633;50.980;13.850;2023-10-13T07:58:47;10.60;;;9.60;;
18999;SDS011;9633;50.980;13.850;2023-10-13T08:00:24;12.63;;;10.27;;
18999;SDS011;9633;50.980;13.850;2023-10-13T08:02:00;12.07;;;9.50;;
18999;SDS011;9633;50.980;13.850;2023-10-13T08:03:46;9.50;;;8.30;;
18999;SDS011;9633;50.980;13.850;2023-10-13T08:05:36;10.20;;;8.53;;
18999;SDS011;9633;50.980;13.850;2023-10-13T08:07:27;9.60;;;8.27;;
18999;SDS011;9633;50.980;13.850;2023-10-13T08:09:03;10.00;;;8.13;;
18999;SDS011;9633;50.980;13.850;2023-10-13T08:10:39;9.53;;;8.00;;
18999;SDS011;9633;50.980;13.850;2023-10-13T08:12:14;9.07;;;7.97;;
18999;SDS011;9633;50.980;13.850;2023-10-13T08:13:53;8.83;;;7.53;;
18999;SDS011;9633;50.980;13.850;2023-10-13T08:15:39;8.07;;;7.03;;
18999;SDS011;9633;50.980;13.850;2023-10-13T08:17:18;7.77;;;6.90;;
18999;SDS011;9633;50.980;13.850;2023-10-13T08:19:00;7.93;;;7.13;;
18999;SDS011;9633;50.980;13.850;2023-10-13T08:20:33;7.77;;;6.23;;
18999;SDS011;9633;50.980;13.850;2023-10-13T08:22:12;7.57;;;5.90;;
18999;SDS011;9633;50.980;13.850;2023-10-13T08:23:56;8.73;;;6.27;;
18999;SDS011;9633;50.980;13.850;2023-10-13T08:25:30;6.70;;;5.73;;
18999;SDS011;9633;50.980;13.850;2023-10-13T08:27:26;6.80;;;5.70;;
18999;SDS011;9633;50.980;13.850;2023-10-13T08:29:06;5.80;;;5.30;;
18999;SDS011;9633;50.980;13.850;2023-10-13T08:30:54;6.80;;;5.33;;
18999;SDS011;9633;50.980;13.850;2023-10-13T08:32:28;7.70;;;5.20;;
18999;SDS011;9633;50.980;13.850;2023-10-13T08:34:18;6.03;;;4.80;;
18999;SDS011;9633;50.980;13.850;2023-10-13T08:35:55;7.33;;;4.57;;
18999;SDS011;9633;50.980;13.850;2023-10-13T08:37:49;5.20;;;3.80;;
18999;SDS011;9633;50.980;13.850;2023-10-13T08:39:49;4.60;;;3.23;;
18999;SDS011;9633;50.980;13.850;2023-10-13T08:41:46;3.07;;;2.80;;
18999;SDS011;9633;50.980;13.850;2023-10-13T08:43:43;3.57;;;2.80;;
18999;SDS011;9633;50.980;13.850;2023-10-13T08:45:22;3.77;;;2.80;;
18999;SDS011;9633;50.980;13.850;2023-10-13T08:47:10;3.93;;;3.10;;
18999;SDS011;9633;50.980;13.850;2023-10-13T08:48:48;3.93;;;3.00;;
18999;SDS011;9633;50.980;13.850;2023-10-13T08:50:24;3.17;;;2.87;;
18999;SDS011;9633;50.980;13.850;2023-10-13T08:52:19;2.80;;;2.60;;
18999;SDS011;9633;50.980;13.850;2023-10-13T08:54:20;2.60;;;2.27;;
18999;SDS011;9633;50.980;13.850;2023-10-13T08:56:08;2.83;;;2.20;;
18999;SDS011;9633;50.980;13.850;2023-10-13T08:57:46;3.00;;;2.73;;
18999;SDS011;9633;50.980;13.850;2023-10-13T08:59:21;4.63;;;3.27;;
18999;SDS011;9633;50.980;13.850;2023-10-13T09:01:05;4.30;;;3.20;;
18999;SDS011;9633;50.980;13.850;2023-10-13T09:02:44;4.60;;;3.10;;
18999;SDS011;9633;50.980;13.850;2023-10-13T09:04:52;5.73;;;3.87;;
18999;SDS011;9633;50.980;13.850;2023-10-13T09:06:45;4.63;;;4.00;;
18999;SDS011;9633;50.980;13.850;2023-10-13T09:08:24;6.60;;;4.37;;
18999;SDS011;9633;50.980;13.850;2023-10-13T09:10:06;5.57;;;4.70;;
18999;SDS011;9633;50.980;13.850;2023-10-13T09:12:10;4.50;;;4.10;;
18999;SDS011;9633;50.980;13.850;2023-10-13T09:13:42;6.70;;;5.10;;
18999;SDS011;9633;50.980;13.850;2023-10-13T09:15:16;5.37;;;4.83;;
18999;SDS011;9633;50.980;13.850;2023-10-13T09:17:00;5.93;;;5.33;;
18999;SDS011;9633;50.980;13.850;2023-10-13T09:18:39;5.30;;;4.80;;
18999;SDS011;9633;50.980;13.850;2023-10-13T09:20:27;5.70;;;5.10;;
18999;SDS011;9633;50.980;13.850;2023-10-13T09:22:22;6.80;;;5.17;;
18999;SDS011;9633;50.980;13.850;2023-10-13T09:24:00;7.03;;;5.77;;
18999;SDS011;9633;50.980;13.850;2023-10-13T09:26:04;7.20;;;6.40;;
18999;SDS011;9633;50.980;13.850;2023-10-13T09:27:41;6.87;;;5.80;;
18999;SDS011;9633;50.980;13.850;2023-10-13T09:29:14;7.20;;;6.40;;
18999;SDS011;9633;50.980;13.850;2023-10-13T09:30:50;7.03;;;6.37;;
18999;SDS011;9633;50.980;13.850;2023-10-13T09:32:24;7.97;;;7.17;;
18999;SDS011;9633;50.980;13.850;2023-10-13T09:33:59;7.63;;;6.40;;
18999;SDS011;9633;50.980;13.850;2023-10-13T09:35:34;7.63;;;6.87;;
18999;SDS011;9633;50.980;13.850;2023-10-13T09:37:08;8.93;;;7.10;;
18999;SDS011;9633;50.980;13.850;2023-10-13T09:38:46;9.53;;;7.90;;
18999;SDS011;9633;50.980;13.850;2023-10-13T09:40:40;8.87;;;7.90;;
18999;SDS011;9633;50.980;13.850;2023-10-13T09:42:18;9.97;;;8.20;;
18999;SDS011;9633;50.980;13.850;2023-10-13T09:43:55;9.70;;;8.40;;
18999;SDS011;9633;50.980;13.850;2023-10-13T09:45:30;11.07;;;8.10;;
18999;SDS011;9633;50.980;13.850;2023-10-13T09:47:08;11.10;;;9.60;;
18999;SDS011;9633;50.980;13.850;2023-10-13T09:48:48;11.10;;;9.43;;
18999;SDS011;9633;50.980;13.850;2023-10-13T09:50:36;12.87;;;11.53;;
18999;SDS011;9633;50.980;13.850;2023-10-13T09:52:09;13.97;;;12.47;;
18999;SDS011;9633;50.980;13.850;2023-10-13T09:53:52;14.50;;;12.47;;
18999;SDS011;9633;50.980;13.850;2023-10-13T09:55:50;16.03;;;12.53;;
18999;SDS011;9633;50.980;13.850;2023-10-13T09:57:31;17.80;;;13.30;;
18999;SDS011;9633;50.980;13.850;2023-10-13T09:59:14;20.27;;;14.33;;